LST weather

Launceston Airport
Launceston, Tasmania, Australia

Public forecast

Using degrees Celsius for public forecast. Weather courtesy of forecast.io.

METAR (pilot weather report)

Retrieved 2018/06/23 13:30 UTC (0 seconds ago):

YMLT 231330Z AUTO 31010KT 9999 // SCT061 05/01 Q1022 RF00.0/000.0

TAF (pilot weather forecast)

Retrieved 2018/06/23 12:36 UTC (40 minutes ago):

TAF YMLT 231107Z 2312/2412 32008KT 9999 BKN045 FM240300 VRB05KT 9999 SCT045